createdAt,value
2018-11-26T00:00:35.756Z,98360.43
2018-11-26T00:03:11.293Z,98354.08
2018-11-26T00:05:43.227Z,98347.37
2018-11-26T00:08:14.026Z,98348.22
2018-11-26T00:10:54.958Z,98345.24
2018-11-26T00:13:26.039Z,98345.30
2018-11-26T00:15:57.027Z,98341.06
2018-11-26T00:18:27.103Z,98339.23
2018-11-26T00:20:57.365Z,98335.57
2018-11-26T00:23:28.124Z,98326.95
2018-11-26T00:25:58.379Z,98326.80
2018-11-26T00:28:28.238Z,98327.37
2018-11-26T00:30:58.126Z,98329.08
2018-11-26T00:33:29.358Z,98321.64
2018-11-26T00:35:59.266Z,98318.54
2018-11-26T00:38:29.153Z,98315.63
2018-11-26T00:41:00.328Z,98310.97
2018-11-26T00:43:30.362Z,98313.89
2018-11-26T00:46:01.155Z,98312.18
2018-11-26T00:48:32.356Z,98307.10
2018-11-26T00:51:08.379Z,98305.73
2018-11-26T00:53:38.247Z,98300.81
2018-11-26T00:56:08.507Z,98294.73
2018-11-26T00:58:39.184Z,98293.47
2018-11-26T01:01:09.518Z,98292.51
2018-11-26T01:03:39.475Z,98296.74
2018-11-26T01:06:11.209Z,98291.63
2018-11-26T01:08:43.407Z,98294.69
2018-11-26T01:11:13.273Z,98289.13
2018-11-26T01:13:44.422Z,98286.54
2018-11-26T01:16:14.111Z,98287.11
2018-11-26T01:18:45.268Z,98283.41
2018-11-26T01:21:16.551Z,98278.17
2018-11-26T01:23:46.362Z,98274.16
2018-11-26T01:26:16.723Z,98274.67
2018-11-26T01:28:47.332Z,98267.44
2018-11-26T01:31:19.371Z,98272.02
2018-11-26T01:33:50.551Z,98267.85
2018-11-26T01:36:21.360Z,98265.67
2018-11-26T01:38:51.511Z,98259.02
2018-11-26T01:41:22.297Z,98262.88
2018-11-26T01:43:52.480Z,98250.02
2018-11-26T01:46:22.411Z,98249.02
2018-11-26T01:48:56.317Z,98246.69
2018-11-26T01:51:27.869Z,98247.64
2018-11-26T01:53:59.774Z,98246.67
2018-11-26T01:56:30.539Z,98240.64
2018-11-26T01:59:01.572Z,98237.80
2018-11-26T02:01:33.476Z,98239.91
2018-11-26T02:04:04.719Z,98242.09
2018-11-26T02:06:34.788Z,98238.23
2018-11-26T02:09:06.224Z,98228.59
2018-11-26T02:11:41.168Z,98225.58
2018-11-26T02:14:11.583Z,98219.17
2018-11-26T02:16:44.447Z,98218.01
2018-11-26T02:19:14.086Z,98211.91
2018-11-26T02:21:45.778Z,98214.61
2018-11-26T02:24:16.576Z,98212.14
2018-11-26T02:26:46.658Z,98212.77
2018-11-26T02:29:16.801Z,98211.91
2018-11-26T02:31:46.767Z,98210.58
2018-11-26T02:34:16.817Z,98210.23
2018-11-26T02:36:48.622Z,98199.16
2018-11-26T02:39:20.629Z,98196.98
2018-11-26T02:41:51.955Z,98192.33
2018-11-26T02:44:21.979Z,98190.73
2018-11-26T02:46:51.707Z,98189.25
2018-11-26T02:49:21.987Z,98189.62
2018-11-26T02:51:52.880Z,98193.89
2018-11-26T02:54:22.803Z,98195.28
2018-11-26T02:56:53.891Z,98183.50
2018-11-26T02:59:27.562Z,98181.27
2018-11-26T03:01:59.903Z,98180.41
2018-11-26T03:04:32.118Z,98177.45
2018-11-26T03:07:03.795Z,98184.30
2018-11-26T03:09:33.812Z,98178.89
2018-11-26T03:12:04.938Z,98182.70
2018-11-26T03:14:35.096Z,98182.58
2018-11-26T03:17:05.588Z,98182.58
2018-11-26T03:19:35.962Z,98175.86
2018-11-26T03:22:06.032Z,98184.58
2018-11-26T03:24:36.673Z,98176.96
2018-11-26T03:27:07.168Z,98177.50
2018-11-26T03:29:36.940Z,98173.81
2018-11-26T03:32:07.973Z,98180.10
2018-11-26T03:34:38.301Z,98180.83
2018-11-26T03:37:08.786Z,98170.42
2018-11-26T03:39:38.990Z,98165.77
2018-11-26T03:42:09.232Z,98171.70
2018-11-26T03:44:39.979Z,98161.54
2018-11-26T03:47:10.249Z,98160.69
2018-11-26T03:49:40.861Z,98165.78
2018-11-26T03:52:11.204Z,98167.16
2018-11-26T03:54:41.714Z,98167.94
2018-11-26T03:57:12.222Z,98164.98
2018-11-26T03:59:42.638Z,98160.33
2018-11-26T04:02:13.182Z,98161.97
2018-11-26T04:04:43.214Z,98156.05
2018-11-26T04:07:13.598Z,98156.56
2018-11-26T04:09:44.079Z,98164.98
2018-11-26T04:12:13.774Z,98157.48
2018-11-26T04:14:44.153Z,98148.13
2018-11-26T04:17:14.027Z,98141.39
2018-11-26T04:19:44.193Z,98146.17
2018-11-26T04:22:14.092Z,98139.05
2018-11-26T04:24:45.994Z,98145.94
2018-11-26T04:27:16.672Z,98145.45
2018-11-26T04:29:46.834Z,98142.42
2018-11-26T04:32:17.299Z,98140.38
2018-11-26T04:34:47.192Z,98136.98
2018-11-26T04:37:17.159Z,98136.56
2018-11-26T04:39:54.869Z,98133.64
2018-11-26T04:42:24.430Z,98131.11
2018-11-26T04:44:55.528Z,98134.80
2018-11-26T04:47:26.398Z,98131.91
2018-11-26T04:49:58.434Z,98137.90
2018-11-26T04:52:29.387Z,98137.41
2018-11-26T04:54:59.387Z,98127.78
2018-11-26T04:57:29.503Z,98120.70
2018-11-26T05:00:01.574Z,98121.44
2018-11-26T05:02:33.282Z,98125.00
2018-11-26T05:05:04.527Z,98124.53
2018-11-26T05:07:34.514Z,98123.73
2018-11-26T05:10:07.403Z,98125.48
2018-11-26T05:12:37.415Z,98118.91
2018-11-26T05:15:09.999Z,98126.59
2018-11-26T05:17:41.272Z,98125.33
2018-11-26T05:20:13.628Z,98127.86
2018-11-26T05:22:45.363Z,98124.96
2018-11-26T05:25:17.454Z,98123.93
2018-11-26T05:27:49.514Z,98126.95
2018-11-26T05:30:20.719Z,98121.07
2018-11-26T05:32:52.293Z,98129.08
2018-11-26T05:35:23.447Z,98119.45
2018-11-26T05:37:53.444Z,98117.47
2018-11-26T05:40:23.597Z,98113.70
2018-11-26T05:42:54.752Z,98118.35
2018-11-26T05:45:26.516Z,98115.40
2018-11-26T05:47:58.417Z,98107.36
2018-11-26T05:50:28.850Z,98114.50
2018-11-26T05:52:58.527Z,98109.42
2018-11-26T05:55:29.575Z,98112.84
2018-11-26T05:57:59.576Z,98114.06
2018-11-26T06:00:32.420Z,98108.09
2018-11-26T06:03:03.715Z,98108.99
2018-11-26T06:05:35.711Z,98109.05
2018-11-26T06:08:07.680Z,98111.17
2018-11-26T06:10:39.660Z,98109.03
2018-11-26T06:13:13.436Z,98107.89
2018-11-26T06:15:45.080Z,98099.73
2018-11-26T06:18:14.706Z,98110.73
2018-11-26T06:20:46.803Z,98106.39
2018-11-26T06:23:18.630Z,98102.22
2018-11-26T06:25:49.911Z,98113.23
2018-11-26T06:28:20.260Z,98106.02
2018-11-26T06:30:50.597Z,98106.88
2018-11-26T06:33:20.907Z,98106.03
2018-11-26T06:35:51.268Z,98103.96
2018-11-26T06:38:24.539Z,98112.84
2018-11-26T06:40:55.147Z,98109.48
2018-11-26T06:43:24.795Z,98107.77
2018-11-26T06:45:55.774Z,98112.92
2018-11-26T06:48:29.661Z,98112.08
2018-11-26T06:51:01.870Z,98115.45
2018-11-26T06:53:32.819Z,98111.01
2018-11-26T06:56:02.931Z,98117.22
2018-11-26T06:58:33.922Z,98121.48
2018-11-26T07:01:03.926Z,98122.71
2018-11-26T07:03:33.993Z,98126.58
2018-11-26T07:06:03.962Z,98122.77
2018-11-26T07:08:35.006Z,98127.73
2018-11-26T07:11:04.815Z,98125.72
2018-11-26T07:13:34.855Z,98138.03
2018-11-26T07:16:06.331Z,98129.97
2018-11-26T07:18:36.881Z,98131.53
2018-11-26T07:21:10.056Z,98131.97
2018-11-26T07:23:39.962Z,98126.40
2018-11-26T07:26:10.005Z,98130.68
2018-11-26T07:28:40.026Z,98129.11
2018-11-26T07:31:11.029Z,98125.73
2018-11-26T07:33:41.000Z,98130.31
2018-11-26T07:36:13.148Z,98126.58
2018-11-26T07:38:45.231Z,98118.95
2018-11-26T07:41:14.791Z,98123.98
2018-11-26T07:43:45.066Z,98121.03
2018-11-26T07:46:14.631Z,98125.66
2018-11-26T07:48:48.910Z,98129.86
2018-11-26T07:51:19.099Z,98129.42
2018-11-26T07:53:50.381Z,98126.11
2018-11-26T07:56:21.476Z,98129.05
2018-11-26T07:58:52.985Z,98132.77
2018-11-26T08:01:24.256Z,98129.97
2018-11-26T08:03:54.135Z,98127.38
2018-11-26T08:06:24.155Z,98135.77
2018-11-26T08:08:55.883Z,98126.58
2018-11-26T08:11:28.100Z,98129.90
2018-11-26T08:13:59.223Z,98122.23
2018-11-26T08:16:29.361Z,98129.11
2018-11-26T08:18:59.997Z,98129.86
2018-11-26T08:21:30.141Z,98130.22
2018-11-26T08:24:00.354Z,98135.82
2018-11-26T08:26:30.547Z,98141.65
2018-11-26T08:29:01.178Z,98137.47
2018-11-26T08:31:33.251Z,98147.08
2018-11-26T08:34:05.599Z,98151.75
2018-11-26T08:36:40.287Z,98150.95
2018-11-26T08:39:17.346Z,98156.70
2018-11-26T08:41:53.661Z,98150.58
2018-11-26T08:44:28.276Z,98152.83
2018-11-26T08:47:03.829Z,98152.41
2018-11-26T08:49:35.298Z,98149.84
2018-11-26T08:52:05.642Z,98151.00
2018-11-26T08:54:35.353Z,98152.27
2018-11-26T08:57:06.515Z,98158.20
2018-11-26T08:59:37.733Z,98156.14
2018-11-26T09:02:10.652Z,98161.20
2018-11-26T09:04:45.873Z,98168.00
2018-11-26T09:07:17.333Z,98175.25
2018-11-26T09:09:50.212Z,98171.75
2018-11-26T09:12:20.539Z,98183.10
2018-11-26T09:14:51.429Z,98181.42
2018-11-26T09:17:21.454Z,98181.34
2018-11-26T09:19:52.536Z,98173.64
2018-11-26T09:22:25.612Z,98175.97
2018-11-26T09:24:56.466Z,98180.99
2018-11-26T09:27:26.713Z,98174.82
2018-11-26T09:29:56.571Z,98177.97
2018-11-26T09:32:27.612Z,98175.12
2018-11-26T09:34:57.553Z,98169.73
2018-11-26T09:37:28.546Z,98169.27
2018-11-26T09:39:58.639Z,98171.92
2018-11-26T09:42:29.700Z,98170.61
2018-11-26T09:44:59.721Z,98168.17
2018-11-26T09:47:32.500Z,98172.63
2018-11-26T09:50:03.678Z,98170.77
2018-11-26T09:52:34.718Z,98169.38
2018-11-26T09:55:04.561Z,98166.43
2018-11-26T09:57:34.552Z,98166.72
2018-11-26T10:00:11.518Z,98158.88
2018-11-26T10:02:42.286Z,98162.13
2018-11-26T10:05:14.211Z,98163.52
2018-11-26T10:07:45.560Z,98169.88
2018-11-26T10:10:17.715Z,98165.69
2018-11-26T10:12:48.665Z,98165.16
2018-11-26T10:15:20.695Z,98170.30
2018-11-26T10:17:50.851Z,98170.83
2018-11-26T10:20:20.791Z,98168.34
2018-11-26T10:22:52.822Z,98173.69
2018-11-26T10:25:24.040Z,98168.11
2018-11-26T10:27:55.595Z,98169.44
2018-11-26T10:30:26.797Z,98171.52
2018-11-26T10:32:56.756Z,98171.09
2018-11-26T10:35:26.729Z,98173.69
2018-11-26T10:37:58.910Z,98167.70
2018-11-26T10:40:30.952Z,98167.23
2018-11-26T10:43:01.390Z,98172.83
2018-11-26T10:45:31.843Z,98178.20
2018-11-26T10:48:02.501Z,98176.52
2018-11-26T10:50:32.820Z,98174.95
2018-11-26T10:53:02.857Z,98183.30
2018-11-26T10:55:34.887Z,98186.89
2018-11-26T10:58:04.622Z,98177.97
2018-11-26T11:00:40.652Z,98173.69
2018-11-26T11:03:11.083Z,98185.42
2018-11-26T11:05:41.892Z,98176.38
2018-11-26T11:08:11.893Z,98179.72
2018-11-26T11:10:43.019Z,98181.08
2018-11-26T11:13:12.958Z,98175.54
2018-11-26T11:15:44.043Z,98171.41
2018-11-26T11:18:14.156Z,98171.84
2018-11-26T11:20:45.189Z,98189.70
2018-11-26T11:23:14.829Z,98179.92
2018-11-26T11:25:49.180Z,98184.59
2018-11-26T11:28:21.904Z,98195.00
2018-11-26T11:30:53.318Z,98181.05
2018-11-26T11:35:56.036Z,98185.74
2018-11-26T11:38:28.288Z,98176.86
2018-11-26T11:40:57.959Z,98185.42
2018-11-26T11:43:28.438Z,98179.88
2018-11-26T11:45:58.713Z,98170.89
2018-11-26T11:48:31.267Z,98169.30
2018-11-26T11:51:04.276Z,98179.81
2018-11-26T11:53:36.374Z,98178.49
2018-11-26T11:56:07.578Z,98171.72
2018-11-26T11:58:40.266Z,98175.02
2018-11-26T12:01:11.312Z,98167.02
2018-11-26T12:03:42.284Z,98167.66
2018-11-26T12:06:12.108Z,98171.25
2018-11-26T12:08:43.383Z,98174.33
2018-11-26T12:11:14.491Z,98171.78
2018-11-26T12:13:44.348Z,98182.35
2018-11-26T12:16:14.459Z,98173.94
2018-11-26T12:18:45.348Z,98171.45
2018-11-26T12:21:15.020Z,98179.08
2018-11-26T12:23:46.445Z,98180.24
2018-11-26T12:26:18.312Z,98187.91
2018-11-26T12:28:50.278Z,98179.87
2018-11-26T12:31:20.587Z,98179.34
2018-11-26T12:33:51.235Z,98189.23
2018-11-26T12:36:23.461Z,98188.28
2018-11-26T12:38:53.455Z,98186.22
2018-11-26T12:41:23.532Z,98189.66
2018-11-26T12:43:54.274Z,98192.50
2018-11-26T12:46:25.267Z,98205.88
2018-11-26T12:48:56.568Z,98196.25
2018-11-26T12:51:27.479Z,98189.75
2018-11-26T12:53:59.543Z,98199.16
2018-11-26T12:56:30.573Z,98194.83
2018-11-26T12:59:03.535Z,98195.36
2018-11-26T13:01:37.372Z,98204.61
2018-11-26T13:04:09.538Z,98206.83
2018-11-26T13:06:39.560Z,98199.64
2018-11-26T13:09:09.573Z,98203.06
2018-11-26T13:11:40.396Z,98199.83
2018-11-26T13:14:14.868Z,98192.49
2018-11-26T13:16:44.604Z,98201.76
2018-11-26T13:19:14.510Z,98194.94
2018-11-26T13:21:45.591Z,98207.53
2018-11-26T13:24:15.188Z,98204.28
2018-11-26T13:26:46.630Z,98201.13
2018-11-26T13:29:17.688Z,98206.72
2018-11-26T13:31:47.696Z,98218.19
2018-11-26T13:34:17.736Z,98210.78
2018-11-26T13:36:48.514Z,98209.52
2018-11-26T13:39:20.912Z,98221.67
2018-11-26T13:41:52.853Z,98212.00
2018-11-26T13:44:23.714Z,98220.41
2018-11-26T13:46:53.752Z,98225.39
2018-11-26T13:49:23.834Z,98218.25
2018-11-26T13:51:55.716Z,98226.60
2018-11-26T13:54:26.662Z,98222.00
2018-11-26T13:56:56.735Z,98228.25
2018-11-26T13:59:27.729Z,98227.45
2018-11-26T14:02:01.615Z,98227.45
2018-11-26T14:04:31.744Z,98237.64
2018-11-26T14:07:02.784Z,98233.73
2018-11-26T14:09:34.011Z,98233.73
2018-11-26T14:12:05.154Z,98255.04
2018-11-26T14:14:34.844Z,98233.52
2018-11-26T14:17:05.793Z,98242.25
2018-11-26T14:19:36.489Z,98259.17
2018-11-26T14:22:06.874Z,98249.58
2018-11-26T14:24:37.913Z,98253.44
2018-11-26T14:27:08.891Z,98257.72
2018-11-26T14:29:38.954Z,98253.20
2018-11-26T14:32:10.078Z,98251.75
2018-11-26T14:34:40.424Z,98269.89
2018-11-26T14:37:10.880Z,98262.80
2018-11-26T14:39:41.144Z,98266.45
2018-11-26T14:42:12.034Z,98264.80
2018-11-26T14:44:42.551Z,98272.89
2018-11-26T14:47:14.432Z,98269.94
2018-11-26T14:49:43.993Z,98279.41
2018-11-26T14:52:14.156Z,98277.44
2018-11-26T14:54:44.738Z,98277.72
2018-11-26T14:57:14.822Z,98268.80
2018-11-26T14:59:45.764Z,98282.46
2018-11-26T15:02:15.508Z,98263.91
2018-11-26T15:04:47.556Z,98269.64
2018-11-26T15:07:18.041Z,98269.31
2018-11-26T15:09:49.199Z,98284.20
2018-11-26T15:12:19.892Z,98293.92
2018-11-26T15:14:50.206Z,98296.58
2018-11-26T15:17:21.183Z,98284.79
2018-11-26T15:19:51.206Z,98285.68
2018-11-26T15:22:21.180Z,98286.09
2018-11-26T15:24:52.359Z,98291.68
2018-11-26T15:27:27.129Z,98295.98
2018-11-26T15:29:57.293Z,98296.24
2018-11-26T15:32:28.289Z,98297.13
2018-11-26T15:34:59.229Z,98299.23
2018-11-26T15:37:31.240Z,98301.01
2018-11-26T15:40:01.165Z,98308.46
2018-11-26T15:42:30.769Z,98301.39
2018-11-26T15:45:06.584Z,98305.58
2018-11-26T15:47:36.128Z,98315.08
2018-11-26T15:50:07.999Z,98310.42
2018-11-26T15:52:37.589Z,98304.90
2018-11-26T15:55:09.338Z,98301.67
2018-11-26T15:57:41.225Z,98312.62
2018-11-26T16:00:14.575Z,98318.91
2018-11-26T16:02:45.270Z,98323.95
2018-11-26T16:05:21.004Z,98322.38
2018-11-26T16:07:59.443Z,98333.31
2018-11-26T16:10:29.389Z,98323.18
2018-11-26T16:13:00.664Z,98317.19
2018-11-26T16:15:36.817Z,98333.36
2018-11-26T16:18:09.711Z,98337.16
2018-11-26T16:20:41.354Z,98335.43
2018-11-26T16:23:14.421Z,98336.77
2018-11-26T16:25:47.400Z,98336.77
2018-11-26T16:28:21.146Z,98338.04
2018-11-26T16:30:52.577Z,98344.38
2018-11-26T16:33:24.593Z,98339.73
2018-11-26T16:35:54.584Z,98352.02
2018-11-26T16:38:24.393Z,98348.10
2018-11-26T16:40:55.526Z,98362.08
2018-11-26T16:43:27.473Z,98351.94
2018-11-26T16:45:57.582Z,98355.85
2018-11-26T16:48:29.477Z,98367.25
2018-11-26T16:51:01.513Z,98366.77
2018-11-26T16:53:31.772Z,98365.08
2018-11-26T16:56:02.483Z,98369.30
2018-11-26T16:58:32.529Z,98368.45
2018-11-26T17:01:03.608Z,98379.08
2018-11-26T17:03:34.235Z,98374.44
2018-11-26T17:06:04.768Z,98371.45
2018-11-26T17:08:35.252Z,98376.97
2018-11-26T17:11:05.596Z,98382.88
2018-11-26T17:13:36.353Z,98373.62
2018-11-26T17:16:07.781Z,98376.19
2018-11-26T17:18:36.576Z,98390.91
2018-11-26T17:21:07.627Z,98377.00
2018-11-26T17:23:38.548Z,98375.28
2018-11-26T17:26:12.411Z,98384.67
2018-11-26T17:28:42.706Z,98382.14
2018-11-26T17:31:13.901Z,98388.05
2018-11-26T17:33:45.528Z,98385.55
2018-11-26T17:36:15.248Z,98391.10
2018-11-26T17:38:45.986Z,98399.94
2018-11-26T17:41:15.625Z,98401.27
2018-11-26T17:43:46.793Z,98400.52
2018-11-26T17:46:18.738Z,98395.75
2018-11-26T17:48:50.529Z,98400.84
2018-11-26T17:51:22.833Z,98401.75
2018-11-26T17:53:53.877Z,98417.01
2018-11-26T17:56:23.427Z,98409.86
2018-11-26T17:58:57.641Z,98409.41
2018-11-26T18:01:34.389Z,98405.61
2018-11-26T18:04:04.510Z,98413.15
2018-11-26T18:06:34.966Z,98407.20
2018-11-26T18:09:07.146Z,98416.13
2018-11-26T18:11:38.991Z,98414.86
2018-11-26T18:14:11.140Z,98412.30
2018-11-26T18:16:42.865Z,98411.03
2018-11-26T18:19:13.985Z,98416.95
2018-11-26T18:21:44.056Z,98425.33
2018-11-26T18:24:15.032Z,98418.25
2018-11-26T18:26:45.968Z,98422.07
2018-11-26T18:29:15.518Z,98422.07
2018-11-26T18:31:45.961Z,98429.61
2018-11-26T18:34:15.611Z,98432.18
2018-11-26T18:36:47.050Z,98435.12
2018-11-26T18:39:17.880Z,98455.81
2018-11-26T18:41:47.878Z,98439.80
2018-11-26T18:44:20.884Z,98447.38
2018-11-26T18:46:53.110Z,98457.53
2018-11-26T18:49:24.415Z,98463.91
2018-11-26T18:51:54.150Z,98469.75
2018-11-26T18:54:25.052Z,98458.01
2018-11-26T18:56:56.090Z,98453.34
2018-11-26T18:59:26.234Z,98474.81
2018-11-26T19:01:58.175Z,98459.62
2018-11-26T19:04:30.395Z,98467.64
2018-11-26T19:07:01.093Z,98462.20
2018-11-26T19:09:32.071Z,98469.75
2018-11-26T19:12:04.141Z,98474.37
2018-11-26T19:14:33.220Z,98471.81
2018-11-26T19:17:04.318Z,98470.17
2018-11-26T19:19:41.964Z,98475.16
2018-11-26T19:22:10.590Z,98472.70
2018-11-26T19:24:42.128Z,98470.59
2018-11-26T19:27:15.302Z,98473.50
2018-11-26T19:29:46.073Z,98477.83
2018-11-26T19:32:15.688Z,98479.88
2018-11-26T19:34:46.117Z,98488.42
2018-11-26T19:37:22.081Z,98481.63
2018-11-26T19:39:51.659Z,98494.73
2018-11-26T19:42:23.586Z,98496.82
2018-11-26T19:44:55.316Z,98497.69
2018-11-26T19:47:27.541Z,98504.40
2018-11-26T19:50:02.331Z,98501.98
2018-11-26T19:52:29.421Z,98509.52
2018-11-26T19:54:59.993Z,98516.34
2018-11-26T19:57:30.208Z,98511.25
2018-11-26T20:00:00.462Z,98531.48
2018-11-26T20:02:30.077Z,98517.64
2018-11-26T20:05:02.855Z,98544.19
2018-11-26T20:07:33.153Z,98518.04
2018-11-26T20:10:03.391Z,98532.44
2018-11-26T20:12:34.489Z,98534.12
2018-11-26T20:15:05.804Z,98530.75
2018-11-26T20:17:35.361Z,98539.20
2018-11-26T20:20:06.313Z,98539.97
2018-11-26T20:22:36.447Z,98542.14
2018-11-26T20:25:14.488Z,98543.83
2018-11-26T20:27:44.521Z,98547.16
2018-11-26T20:30:18.653Z,98534.92
2018-11-26T20:32:48.771Z,98553.52
2018-11-26T20:35:18.456Z,98551.47
2018-11-26T20:37:50.857Z,98565.80
2018-11-26T20:40:21.697Z,98566.63
2018-11-26T20:42:53.839Z,98575.94
2018-11-26T20:45:24.469Z,98572.23
2018-11-26T20:47:56.501Z,98578.09
2018-11-26T20:50:28.638Z,98592.84
2018-11-26T20:52:58.565Z,98578.98
2018-11-26T20:55:30.064Z,98590.81
2018-11-26T20:58:00.281Z,98587.38
2018-11-26T21:00:30.670Z,98591.19
2018-11-26T21:03:07.853Z,98598.77
2018-11-26T21:05:37.721Z,98600.94
2018-11-26T21:08:07.914Z,98601.34
2018-11-26T21:10:38.753Z,98604.75
2018-11-26T21:13:10.175Z,98602.64
2018-11-26T21:15:42.747Z,98601.02
2018-11-26T21:18:14.312Z,98600.58
2018-11-26T21:20:48.966Z,98605.23
2018-11-26T21:23:21.151Z,98613.27
2018-11-26T21:25:51.326Z,98624.65
2018-11-26T21:28:21.817Z,98627.61
2018-11-26T21:30:52.668Z,98608.65
2018-11-26T21:33:23.374Z,98611.19
2018-11-26T21:35:53.882Z,98619.20
2018-11-26T21:38:24.587Z,98617.52
2018-11-26T21:40:54.783Z,98624.70
2018-11-26T21:43:24.793Z,98625.11
2018-11-26T21:45:58.992Z,98625.14
2018-11-26T21:48:30.114Z,98637.34
2018-11-26T21:51:01.032Z,98665.59
2018-11-26T21:53:32.984Z,98643.67
2018-11-26T21:56:02.897Z,98650.02
2018-11-26T21:58:35.067Z,98654.23
2018-11-26T22:01:09.101Z,98658.44
2018-11-26T22:03:40.928Z,98653.81
2018-11-26T22:06:13.001Z,98658.05
2018-11-26T22:08:44.057Z,98660.58
2018-11-26T22:11:14.973Z,98663.09
2018-11-26T22:13:46.016Z,98674.91
2018-11-26T22:16:15.661Z,98698.93
2018-11-26T22:18:52.829Z,98683.77
2018-11-26T22:21:23.003Z,98677.45
2018-11-26T22:23:53.921Z,98677.89
2018-11-26T22:26:24.089Z,98669.45
2018-11-26T22:28:55.146Z,98676.19
2018-11-26T22:31:26.096Z,98680.40
2018-11-26T22:33:57.046Z,98680.82
2018-11-26T22:36:27.104Z,98688.84
2018-11-26T22:38:59.181Z,98696.84
2018-11-26T22:41:31.052Z,98684.65
2018-11-26T22:44:02.252Z,98699.81
2018-11-26T22:46:33.069Z,98706.13
2018-11-26T22:49:03.358Z,98714.54
2018-11-26T22:51:34.367Z,98702.75
2018-11-26T22:54:05.213Z,98706.55
2018-11-26T22:56:36.262Z,98717.50
2018-11-26T22:59:09.084Z,98704.02
2018-11-26T23:01:40.162Z,98711.61
2018-11-26T23:04:11.292Z,98706.14
2018-11-26T23:06:42.315Z,98718.36
2018-11-26T23:09:12.124Z,98714.57
2018-11-26T23:11:43.294Z,98713.30
2018-11-26T23:14:14.192Z,98710.75
2018-11-26T23:16:44.224Z,98722.14
2018-11-26T23:19:15.751Z,98711.17
2018-11-26T23:21:45.406Z,98715.82
2018-11-26T23:24:15.512Z,98710.34
2018-11-26T23:26:46.408Z,98713.72
2018-11-26T23:29:16.041Z,98735.64
2018-11-26T23:31:48.343Z,98720.47
2018-11-26T23:34:19.453Z,98718.75
2018-11-26T23:36:49.284Z,98728.03
2018-11-26T23:39:19.544Z,98747.82
2018-11-26T23:41:51.025Z,98741.52
2018-11-26T23:44:22.624Z,98757.95
2018-11-26T23:46:54.337Z,98748.66
2018-11-26T23:49:24.295Z,98729.71
2018-11-26T23:51:56.414Z,98736.89
2018-11-26T23:54:28.318Z,98735.20
2018-11-26T23:57:00.525Z,98749.94
2018-11-26T23:59:31.554Z,98749.49
